sensor_id;sensor_type;location;lat;lon;timestamp;temperature;humidity
42261;DHT22;27926;48.062;7.474;2022-07-29T00:01:22;18.10;99.90
42261;DHT22;27926;48.062;7.474;2022-07-29T00:03:47;18.10;99.90
42261;DHT22;27926;48.062;7.474;2022-07-29T00:06:13;18.20;99.90
42261;DHT22;27926;48.062;7.474;2022-07-29T00:08:37;18.10;99.90
42261;DHT22;27926;48.062;7.474;2022-07-29T00:11:02;18.10;99.90
42261;DHT22;27926;48.062;7.474;2022-07-29T00:13:27;18.00;99.90
42261;DHT22;27926;48.062;7.474;2022-07-29T00:15:54;18.00;99.90
42261;DHT22;27926;48.062;7.474;2022-07-29T00:18:19;17.90;99.90
42261;DHT22;27926;48.062;7.474;2022-07-29T00:20:43;17.90;99.90
42261;DHT22;27926;48.062;7.474;2022-07-29T00:23:08;17.90;99.90
42261;DHT22;27926;48.062;7.474;2022-07-29T00:25:32;17.80;99.90
42261;DHT22;27926;48.062;7.474;2022-07-29T00:27:57;17.80;99.90
42261;DHT22;27926;48.062;7.474;2022-07-29T00:30:22;17.80;99.90
42261;DHT22;27926;48.062;7.474;2022-07-29T00:32:47;17.70;99.90
42261;DHT22;27926;48.062;7.474;2022-07-29T00:35:11;17.70;99.90
42261;DHT22;27926;48.062;7.474;2022-07-29T00:37:54;17.70;99.90
42261;DHT22;27926;48.062;7.474;2022-07-29T00:40:19;17.60;99.90
42261;DHT22;27926;48.062;7.474;2022-07-29T00:42:46;17.60;99.90
42261;DHT22;27926;48.062;7.474;2022-07-29T00:45:12;17.60;99.90
42261;DHT22;27926;48.062;7.474;2022-07-29T00:47:36;17.60;99.90
42261;DHT22;27926;48.062;7.474;2022-07-29T00:50:01;17.50;99.90
42261;DHT22;27926;48.062;7.474;2022-07-29T00:52:27;17.50;99.90
42261;DHT22;27926;48.062;7.474;2022-07-29T00:54:52;17.40;99.90
42261;DHT22;27926;48.062;7.474;2022-07-29T00:57:17;17.40;99.90
42261;DHT22;27926;48.062;7.474;2022-07-29T00:59:41;17.40;99.90
42261;DHT22;27926;48.062;7.474;2022-07-29T01:02:06;17.40;99.90
42261;DHT22;27926;48.062;7.474;2022-07-29T01:04:31;17.40;99.90
42261;DHT22;27926;48.062;7.474;2022-07-29T01:06:56;17.40;99.90
42261;DHT22;27926;48.062;7.474;2022-07-29T01:09:21;17.40;99.90
42261;DHT22;27926;48.062;7.474;2022-07-29T01:11:47;17.40;99.90
42261;DHT22;27926;48.062;7.474;2022-07-29T01:14:12;17.40;99.90
42261;DHT22;27926;48.062;7.474;2022-07-29T01:16:59;17.40;99.90
42261;DHT22;27926;48.062;7.474;2022-07-29T01:20:02;17.40;99.90
42261;DHT22;27926;48.062;7.474;2022-07-29T01:27:44;17.20;99.90
42261;DHT22;27926;48.062;7.474;2022-07-29T01:30:13;17.20;99.90
42261;DHT22;27926;48.062;7.474;2022-07-29T01:32:39;17.20;99.90
42261;DHT22;27926;48.062;7.474;2022-07-29T01:35:20;17.10;99.90
42261;DHT22;27926;48.062;7.474;2022-07-29T01:37:57;17.10;99.90
42261;DHT22;27926;48.062;7.474;2022-07-29T01:40:29;17.10;99.90
42261;DHT22;27926;48.062;7.474;2022-07-29T01:42:57;17.10;99.90
42261;DHT22;27926;48.062;7.474;2022-07-29T01:45:45;17.10;99.90
42261;DHT22;27926;48.062;7.474;2022-07-29T01:48:21;17.00;99.90
42261;DHT22;27926;48.062;7.474;2022-07-29T01:51:04;17.00;99.90
42261;DHT22;27926;48.062;7.474;2022-07-29T01:53:54;16.90;99.90
42261;DHT22;27926;48.062;7.474;2022-07-29T01:56:21;16.90;99.90
42261;DHT22;27926;48.062;7.474;2022-07-29T01:58:49;16.90;99.90
42261;DHT22;27926;48.062;7.474;2022-07-29T02:01:17;16.90;99.90
42261;DHT22;27926;48.062;7.474;2022-07-29T02:03:46;16.90;99.90
42261;DHT22;27926;48.062;7.474;2022-07-29T02:06:13;16.90;99.90
42261;DHT22;27926;48.062;7.474;2022-07-29T02:08:40;16.90;99.90
42261;DHT22;27926;48.062;7.474;2022-07-29T02:11:07;16.90;99.90
42261;DHT22;27926;48.062;7.474;2022-07-29T02:13:34;17.00;99.90
42261;DHT22;27926;48.062;7.474;2022-07-29T02:16:00;17.00;99.90
42261;DHT22;27926;48.062;7.474;2022-07-29T02:18:28;17.10;99.90
42261;DHT22;27926;48.062;7.474;2022-07-29T02:20:56;17.10;99.90
42261;DHT22;27926;48.062;7.474;2022-07-29T02:23:23;17.10;99.90
42261;DHT22;27926;48.062;7.474;2022-07-29T02:25:49;17.20;99.90
42261;DHT22;27926;48.062;7.474;2022-07-29T02:28:16;17.20;99.90
42261;DHT22;27926;48.062;7.474;2022-07-29T02:30:42;17.30;99.90
42261;DHT22;27926;48.062;7.474;2022-07-29T02:33:13;17.20;99.90
42261;DHT22;27926;48.062;7.474;2022-07-29T02:35:40;17.20;99.90
42261;DHT22;27926;48.062;7.474;2022-07-29T02:38:05;17.20;99.90
42261;DHT22;27926;48.062;7.474;2022-07-29T02:40:49;17.10;99.90
42261;DHT22;27926;48.062;7.474;2022-07-29T02:43:15;17.10;99.90
42261;DHT22;27926;48.062;7.474;2022-07-29T02:45:42;17.10;99.90
42261;DHT22;27926;48.062;7.474;2022-07-29T02:48:13;17.10;99.90
42261;DHT22;27926;48.062;7.474;2022-07-29T02:50:45;17.10;99.90
42261;DHT22;27926;48.062;7.474;2022-07-29T02:53:17;17.10;99.90
42261;DHT22;27926;48.062;7.474;2022-07-29T02:55:56;17.10;99.90
42261;DHT22;27926;48.062;7.474;2022-07-29T02:58:31;17.10;99.90
42261;DHT22;27926;48.062;7.474;2022-07-29T03:00:58;17.10;99.90
42261;DHT22;27926;48.062;7.474;2022-07-29T03:03:28;17.10;99.90
42261;DHT22;27926;48.062;7.474;2022-07-29T03:05:58;17.00;99.90
42261;DHT22;27926;48.062;7.474;2022-07-29T03:08:24;16.90;99.90
42261;DHT22;27926;48.062;7.474;2022-07-29T03:10:51;16.90;99.90
42261;DHT22;27926;48.062;7.474;2022-07-29T03:13:17;16.90;99.90
42261;DHT22;27926;48.062;7.474;2022-07-29T03:15:44;16.90;99.90
42261;DHT22;27926;48.062;7.474;2022-07-29T03:18:09;16.90;99.90
42261;DHT22;27926;48.062;7.474;2022-07-29T03:20:34;16.90;99.90
42261;DHT22;27926;48.062;7.474;2022-07-29T03:22:59;16.90;99.90
42261;DHT22;27926;48.062;7.474;2022-07-29T03:25:23;16.90;99.90
42261;DHT22;27926;48.062;7.474;2022-07-29T03:27:49;16.80;99.90
42261;DHT22;27926;48.062;7.474;2022-07-29T03:30:14;16.80;99.90
42261;DHT22;27926;48.062;7.474;2022-07-29T03:32:40;16.80;99.90
42261;DHT22;27926;48.062;7.474;2022-07-29T03:35:06;16.80;99.90
42261;DHT22;27926;48.062;7.474;2022-07-29T03:37:30;16.80;99.90
42261;DHT22;27926;48.062;7.474;2022-07-29T03:39:56;16.70;99.90
42261;DHT22;27926;48.062;7.474;2022-07-29T03:42:24;16.60;99.90
42261;DHT22;27926;48.062;7.474;2022-07-29T03:44:50;16.60;99.90
42261;DHT22;27926;48.062;7.474;2022-07-29T03:47:18;16.50;99.90
42261;DHT22;27926;48.062;7.474;2022-07-29T03:49:46;16.50;99.90
42261;DHT22;27926;48.062;7.474;2022-07-29T03:52:13;16.50;99.90
42261;DHT22;27926;48.062;7.474;2022-07-29T03:54:38;16.50;99.90
42261;DHT22;27926;48.062;7.474;2022-07-29T03:57:04;16.50;99.90
42261;DHT22;27926;48.062;7.474;2022-07-29T03:59:32;16.50;99.90
42261;DHT22;27926;48.062;7.474;2022-07-29T04:01:58;16.50;99.90
42261;DHT22;27926;48.062;7.474;2022-07-29T04:04:24;16.50;99.90
42261;DHT22;27926;48.062;7.474;2022-07-29T04:06:49;16.50;99.90
42261;DHT22;27926;48.062;7.474;2022-07-29T04:09:14;16.50;99.90
42261;DHT22;27926;48.062;7.474;2022-07-29T04:11:40;16.50;99.90
42261;DHT22;27926;48.062;7.474;2022-07-29T04:14:05;16.50;99.90
42261;DHT22;27926;48.062;7.474;2022-07-29T04:16:30;16.60;99.90
42261;DHT22;27926;48.062;7.474;2022-07-29T04:18:54;16.60;99.90
42261;DHT22;27926;48.062;7.474;2022-07-29T04:21:19;16.60;99.90
42261;DHT22;27926;48.062;7.474;2022-07-29T04:23:44;16.70;99.90
42261;DHT22;27926;48.062;7.474;2022-07-29T04:26:09;16.80;99.90
42261;DHT22;27926;48.062;7.474;2022-07-29T04:28:35;16.90;99.90
42261;DHT22;27926;48.062;7.474;2022-07-29T04:30:59;17.00;99.90
42261;DHT22;27926;48.062;7.474;2022-07-29T04:33:24;17.10;99.90
42261;DHT22;27926;48.062;7.474;2022-07-29T04:35:49;17.20;99.90
42261;DHT22;27926;48.062;7.474;2022-07-29T04:38:13;17.30;99.90
42261;DHT22;27926;48.062;7.474;2022-07-29T04:40:38;17.40;99.90
42261;DHT22;27926;48.062;7.474;2022-07-29T04:43:02;17.50;99.90
42261;DHT22;27926;48.062;7.474;2022-07-29T04:45:27;17.60;99.90
42261;DHT22;27926;48.062;7.474;2022-07-29T04:47:52;17.60;99.90
42261;DHT22;27926;48.062;7.474;2022-07-29T04:50:17;17.70;99.90
42261;DHT22;27926;48.062;7.474;2022-07-29T04:52:42;17.70;99.90
42261;DHT22;27926;48.062;7.474;2022-07-29T04:55:06;17.80;99.90
42261;DHT22;27926;48.062;7.474;2022-07-29T04:57:31;18.00;99.90
42261;DHT22;27926;48.062;7.474;2022-07-29T04:59:56;18.20;99.90
42261;DHT22;27926;48.062;7.474;2022-07-29T05:02:21;18.40;99.90
42261;DHT22;27926;48.062;7.474;2022-07-29T05:04:46;18.70;99.90
42261;DHT22;27926;48.062;7.474;2022-07-29T05:07:10;19.10;99.90
42261;DHT22;27926;48.062;7.474;2022-07-29T05:09:35;19.50;99.90
42261;DHT22;27926;48.062;7.474;2022-07-29T05:12:00;19.70;99.90
42261;DHT22;27926;48.062;7.474;2022-07-29T05:14:24;20.20;99.90
42261;DHT22;27926;48.062;7.474;2022-07-29T05:16:49;20.90;99.90
42261;DHT22;27926;48.062;7.474;2022-07-29T05:19:15;21.50;99.90
42261;DHT22;27926;48.062;7.474;2022-07-29T05:21:40;21.50;99.90
42261;DHT22;27926;48.062;7.474;2022-07-29T05:24:04;22.10;99.90
42261;DHT22;27926;48.062;7.474;2022-07-29T05:26:29;21.00;99.90
42261;DHT22;27926;48.062;7.474;2022-07-29T05:28:54;20.80;99.90
42261;DHT22;27926;48.062;7.474;2022-07-29T05:31:19;20.80;99.90
42261;DHT22;27926;48.062;7.474;2022-07-29T05:33:43;20.80;99.90
42261;DHT22;27926;48.062;7.474;2022-07-29T05:36:08;20.80;99.90
42261;DHT22;27926;48.062;7.474;2022-07-29T05:38:33;20.80;99.90
42261;DHT22;27926;48.062;7.474;2022-07-29T05:40:59;20.60;99.90
42261;DHT22;27926;48.062;7.474;2022-07-29T05:43:24;20.50;99.90
42261;DHT22;27926;48.062;7.474;2022-07-29T05:45:48;20.50;99.90
42261;DHT22;27926;48.062;7.474;2022-07-29T05:48:13;20.60;99.90
42261;DHT22;27926;48.062;7.474;2022-07-29T05:50:37;20.80;99.90
42261;DHT22;27926;48.062;7.474;2022-07-29T05:53:02;21.20;99.90
42261;DHT22;27926;48.062;7.474;2022-07-29T05:55:27;22.10;99.90
42261;DHT22;27926;48.062;7.474;2022-07-29T05:57:52;23.10;98.60
42261;DHT22;27926;48.062;7.474;2022-07-29T06:00:17;24.30;96.90
42261;DHT22;27926;48.062;7.474;2022-07-29T06:02:41;25.40;95.60
42261;DHT22;27926;48.062;7.474;2022-07-29T06:05:06;26.00;94.60
42261;DHT22;27926;48.062;7.474;2022-07-29T06:07:31;26.50;94.50
42261;DHT22;27926;48.062;7.474;2022-07-29T06:09:56;26.90;93.40
42261;DHT22;27926;48.062;7.474;2022-07-29T06:12:21;26.90;93.40
42261;DHT22;27926;48.062;7.474;2022-07-29T06:14:46;26.70;92.70
42261;DHT22;27926;48.062;7.474;2022-07-29T06:17:10;27.30;92.40
42261;DHT22;27926;48.062;7.474;2022-07-29T06:19:36;27.80;91.90
42261;DHT22;27926;48.062;7.474;2022-07-29T06:22:00;28.10;91.70
42261;DHT22;27926;48.062;7.474;2022-07-29T06:24:25;28.20;90.80
42261;DHT22;27926;48.062;7.474;2022-07-29T06:26:49;28.30;91.00
42261;DHT22;27926;48.062;7.474;2022-07-29T06:29:14;28.50;90.60
42261;DHT22;27926;48.062;7.474;2022-07-29T06:31:39;28.90;90.40
42261;DHT22;27926;48.062;7.474;2022-07-29T06:34:04;28.90;89.40
42261;DHT22;27926;48.062;7.474;2022-07-29T06:36:28;29.10;90.00
42261;DHT22;27926;48.062;7.474;2022-07-29T06:38:53;29.00;90.00
42261;DHT22;27926;48.062;7.474;2022-07-29T06:41:18;28.80;89.30
42261;DHT22;27926;48.062;7.474;2022-07-29T06:43:44;28.60;89.50
42261;DHT22;27926;48.062;7.474;2022-07-29T06:46:10;28.30;89.40
42261;DHT22;27926;48.062;7.474;2022-07-29T06:48:36;28.30;89.70
42261;DHT22;27926;48.062;7.474;2022-07-29T06:51:00;28.40;90.00
42261;DHT22;27926;48.062;7.474;2022-07-29T06:53:26;28.40;89.80
42261;DHT22;27926;48.062;7.474;2022-07-29T06:55:51;28.70;89.30
42261;DHT22;27926;48.062;7.474;2022-07-29T06:58:16;28.80;89.50
42261;DHT22;27926;48.062;7.474;2022-07-29T07:00:42;28.90;89.30
42261;DHT22;27926;48.062;7.474;2022-07-29T07:03:07;28.90;89.10
42261;DHT22;27926;48.062;7.474;2022-07-29T07:05:31;29.00;89.10
42261;DHT22;27926;48.062;7.474;2022-07-29T07:07:56;29.00;88.20
42261;DHT22;27926;48.062;7.474;2022-07-29T07:10:20;29.10;88.50
42261;DHT22;27926;48.062;7.474;2022-07-29T07:12:45;28.80;88.50
42261;DHT22;27926;48.062;7.474;2022-07-29T07:15:10;28.70;89.40
42261;DHT22;27926;48.062;7.474;2022-07-29T07:17:34;28.10;89.40
42261;DHT22;27926;48.062;7.474;2022-07-29T07:19:59;27.50;90.80
42261;DHT22;27926;48.062;7.474;2022-07-29T07:22:23;27.10;91.10
42261;DHT22;27926;48.062;7.474;2022-07-29T07:24:48;26.50;91.50
42261;DHT22;27926;48.062;7.474;2022-07-29T07:27:13;26.20;92.00
42261;DHT22;27926;48.062;7.474;2022-07-29T07:29:37;26.20;92.30
42261;DHT22;27926;48.062;7.474;2022-07-29T07:32:05;26.40;92.20
42261;DHT22;27926;48.062;7.474;2022-07-29T07:34:30;26.30;91.40
42261;DHT22;27926;48.062;7.474;2022-07-29T07:36:54;25.90;92.10
42261;DHT22;27926;48.062;7.474;2022-07-29T07:39:19;25.90;92.20
42261;DHT22;27926;48.062;7.474;2022-07-29T07:41:43;26.00;92.40
42261;DHT22;27926;48.062;7.474;2022-07-29T07:44:08;26.00;92.10
42261;DHT22;27926;48.062;7.474;2022-07-29T07:46:33;26.20;92.30
42261;DHT22;27926;48.062;7.474;2022-07-29T07:48:57;26.60;92.00
42261;DHT22;27926;48.062;7.474;2022-07-29T07:51:22;26.80;91.80
42261;DHT22;27926;48.062;7.474;2022-07-29T07:53:47;27.10;90.70
42261;DHT22;27926;48.062;7.474;2022-07-29T07:56:14;26.90;90.60
42261;DHT22;27926;48.062;7.474;2022-07-29T07:58:39;26.60;91.30
42261;DHT22;27926;48.062;7.474;2022-07-29T08:01:04;26.40;90.80
42261;DHT22;27926;48.062;7.474;2022-07-29T08:03:28;26.40;91.50
42261;DHT22;27926;48.062;7.474;2022-07-29T08:05:53;26.50;91.80
42261;DHT22;27926;48.062;7.474;2022-07-29T08:08:18;26.50;91.50
42261;DHT22;27926;48.062;7.474;2022-07-29T08:10:43;26.30;91.40
42261;DHT22;27926;48.062;7.474;2022-07-29T08:13:17;26.00;91.50
42261;DHT22;27926;48.062;7.474;2022-07-29T08:15:42;26.10;91.20
42261;DHT22;27926;48.062;7.474;2022-07-29T08:18:09;26.20;91.70
42261;DHT22;27926;48.062;7.474;2022-07-29T08:20:34;26.20;91.80
42261;DHT22;27926;48.062;7.474;2022-07-29T08:22:59;26.30;91.20
42261;DHT22;27926;48.062;7.474;2022-07-29T08:25:24;26.10;91.10
42261;DHT22;27926;48.062;7.474;2022-07-29T08:27:49;26.00;91.60
42261;DHT22;27926;48.062;7.474;2022-07-29T08:30:14;25.90;91.40
42261;DHT22;27926;48.062;7.474;2022-07-29T08:32:38;25.80;90.60
42261;DHT22;27926;48.062;7.474;2022-07-29T08:35:03;26.00;91.70
42261;DHT22;27926;48.062;7.474;2022-07-29T08:37:28;26.20;92.20
42261;DHT22;27926;48.062;7.474;2022-07-29T08:39:53;26.30;91.20
42261;DHT22;27926;48.062;7.474;2022-07-29T08:42:18;26.30;91.40
42261;DHT22;27926;48.062;7.474;2022-07-29T08:44:43;26.30;91.70
42261;DHT22;27926;48.062;7.474;2022-07-29T08:47:08;26.20;91.60
42261;DHT22;27926;48.062;7.474;2022-07-29T08:49:34;26.20;91.80
42261;DHT22;27926;48.062;7.474;2022-07-29T08:52:00;26.30;91.80
42261;DHT22;27926;48.062;7.474;2022-07-29T08:54:25;26.30;92.10
42261;DHT22;27926;48.062;7.474;2022-07-29T08:56:50;26.30;91.40
42261;DHT22;27926;48.062;7.474;2022-07-29T08:59:16;26.30;91.40
42261;DHT22;27926;48.062;7.474;2022-07-29T09:01:43;26.50;91.30
42261;DHT22;27926;48.062;7.474;2022-07-29T09:04:11;26.60;91.00
42261;DHT22;27926;48.062;7.474;2022-07-29T09:06:39;26.80;91.00
42261;DHT22;27926;48.062;7.474;2022-07-29T09:09:04;27.10;90.90
42261;DHT22;27926;48.062;7.474;2022-07-29T09:11:32;26.70;90.30
42261;DHT22;27926;48.062;7.474;2022-07-29T09:13:57;26.90;90.50
42261;DHT22;27926;48.062;7.474;2022-07-29T09:16:22;26.90;91.00
42261;DHT22;27926;48.062;7.474;2022-07-29T09:18:47;26.80;90.90
42261;DHT22;27926;48.062;7.474;2022-07-29T09:21:14;26.80;91.50
42261;DHT22;27926;48.062;7.474;2022-07-29T09:24:04;26.80;91.70
42261;DHT22;27926;48.062;7.474;2022-07-29T09:26:30;26.80;91.40
42261;DHT22;27926;48.062;7.474;2022-07-29T09:28:55;26.90;91.00
42261;DHT22;27926;48.062;7.474;2022-07-29T09:31:36;26.90;91.20
42261;DHT22;27926;48.062;7.474;2022-07-29T09:34:01;26.90;91.40
42261;DHT22;27926;48.062;7.474;2022-07-29T09:36:27;26.80;91.50
42261;DHT22;27926;48.062;7.474;2022-07-29T09:39:01;26.80;90.50
42261;DHT22;27926;48.062;7.474;2022-07-29T09:41:27;26.80;91.80
42261;DHT22;27926;48.062;7.474;2022-07-29T09:44:00;26.80;90.80
42261;DHT22;27926;48.062;7.474;2022-07-29T09:46:26;26.90;90.70
42261;DHT22;27926;48.062;7.474;2022-07-29T09:49:13;27.10;90.90
42261;DHT22;27926;48.062;7.474;2022-07-29T09:51:38;27.40;91.00
42261;DHT22;27926;48.062;7.474;2022-07-29T09:54:24;27.70;90.10
42261;DHT22;27926;48.062;7.474;2022-07-29T09:56:50;28.20;91.00
42261;DHT22;27926;48.062;7.474;2022-07-29T09:59:15;28.40;87.90
42261;DHT22;27926;48.062;7.474;2022-07-29T10:01:40;28.50;89.30
42261;DHT22;27926;48.062;7.474;2022-07-29T10:04:05;28.50;89.70
42261;DHT22;27926;48.062;7.474;2022-07-29T10:06:29;28.50;88.00
42261;DHT22;27926;48.062;7.474;2022-07-29T10:08:54;28.50;88.10
42261;DHT22;27926;48.062;7.474;2022-07-29T10:11:19;28.40;87.00
42261;DHT22;27926;48.062;7.474;2022-07-29T10:13:46;28.50;88.40
42261;DHT22;27926;48.062;7.474;2022-07-29T10:16:11;28.40;87.20
42261;DHT22;27926;48.062;7.474;2022-07-29T10:18:40;28.30;88.20
42261;DHT22;27926;48.062;7.474;2022-07-29T10:21:06;28.30;87.90
42261;DHT22;27926;48.062;7.474;2022-07-29T10:23:31;28.40;87.70
42261;DHT22;27926;48.062;7.474;2022-07-29T10:25:57;28.30;85.80
42261;DHT22;27926;48.062;7.474;2022-07-29T10:28:22;28.30;85.30
42261;DHT22;27926;48.062;7.474;2022-07-29T10:30:50;28.10;87.30
42261;DHT22;27926;48.062;7.474;2022-07-29T10:39:00;27.60;87.20
42261;DHT22;27926;48.062;7.474;2022-07-29T10:41:34;27.60;88.10
42261;DHT22;27926;48.062;7.474;2022-07-29T10:46:27;28.00;89.30
42261;DHT22;27926;48.062;7.474;2022-07-29T10:49:14;28.00;89.30
42261;DHT22;27926;48.062;7.474;2022-07-29T10:59:43;28.10;86.80
42261;DHT22;27926;48.062;7.474;2022-07-29T11:07:20;27.70;90.10
42261;DHT22;27926;48.062;7.474;2022-07-29T11:15:11;27.20;90.90
42261;DHT22;27926;48.062;7.474;2022-07-29T11:20:41;27.30;90.40
42261;DHT22;27926;48.062;7.474;2022-07-29T11:39:31;27.50;90.50
42261;DHT22;27926;48.062;7.474;2022-07-29T11:47:35;27.40;90.40
42261;DHT22;27926;48.062;7.474;2022-07-29T11:50:02;27.50;90.20
42261;DHT22;27926;48.062;7.474;2022-07-29T11:52:45;27.60;90.10
42261;DHT22;27926;48.062;7.474;2022-07-29T11:55:16;27.60;89.50
42261;DHT22;27926;48.062;7.474;2022-07-29T11:57:59;27.60;90.40
42261;DHT22;27926;48.062;7.474;2022-07-29T12:00:30;27.50;90.00
42261;DHT22;27926;48.062;7.474;2022-07-29T12:02:55;27.60;90.80
42261;DHT22;27926;48.062;7.474;2022-07-29T12:05:20;27.50;90.40
42261;DHT22;27926;48.062;7.474;2022-07-29T12:07:45;27.30;90.30
42261;DHT22;27926;48.062;7.474;2022-07-29T12:10:10;27.20;90.50
42261;DHT22;27926;48.062;7.474;2022-07-29T12:12:35;27.30;90.40
42261;DHT22;27926;48.062;7.474;2022-07-29T12:15:14;27.40;90.20
42261;DHT22;27926;48.062;7.474;2022-07-29T12:17:40;27.60;90.40
42261;DHT22;27926;48.062;7.474;2022-07-29T12:20:05;27.70;90.20
42261;DHT22;27926;48.062;7.474;2022-07-29T12:22:32;27.90;90.30
42261;DHT22;27926;48.062;7.474;2022-07-29T12:25:02;28.00;89.40
42261;DHT22;27926;48.062;7.474;2022-07-29T12:27:27;28.10;88.20
42261;DHT22;27926;48.062;7.474;2022-07-29T12:30:05;28.10;87.90
42261;DHT22;27926;48.062;7.474;2022-07-29T12:32:47;28.20;89.10
42261;DHT22;27926;48.062;7.474;2022-07-29T12:35:19;28.20;87.30
42261;DHT22;27926;48.062;7.474;2022-07-29T12:37:46;28.30;88.30
42261;DHT22;27926;48.062;7.474;2022-07-29T12:40:16;28.30;87.00
42261;DHT22;27926;48.062;7.474;2022-07-29T12:42:41;28.20;88.60
42261;DHT22;27926;48.062;7.474;2022-07-29T12:45:06;28.00;88.30
42261;DHT22;27926;48.062;7.474;2022-07-29T12:47:32;27.90;87.90
42261;DHT22;27926;48.062;7.474;2022-07-29T12:50:10;28.00;88.90
42261;DHT22;27926;48.062;7.474;2022-07-29T12:52:36;28.00;88.80
42261;DHT22;27926;48.062;7.474;2022-07-29T12:55:01;27.90;88.40
42261;DHT22;27926;48.062;7.474;2022-07-29T12:57:26;27.90;89.20
42261;DHT22;27926;48.062;7.474;2022-07-29T13:00:05;28.00;90.00
42261;DHT22;27926;48.062;7.474;2022-07-29T13:02:32;27.90;90.20
42261;DHT22;27926;48.062;7.474;2022-07-29T13:04:58;27.90;89.20
42261;DHT22;27926;48.062;7.474;2022-07-29T13:07:28;27.90;90.10
42261;DHT22;27926;48.062;7.474;2022-07-29T13:09:53;27.80;89.40
42261;DHT22;27926;48.062;7.474;2022-07-29T13:12:18;27.80;90.40
42261;DHT22;27926;48.062;7.474;2022-07-29T13:14:45;27.80;90.10
42261;DHT22;27926;48.062;7.474;2022-07-29T13:22:16;27.80;90.30
42261;DHT22;27926;48.062;7.474;2022-07-29T13:27:25;27.60;91.10
42261;DHT22;27926;48.062;7.474;2022-07-29T13:29:51;27.80;91.10
42261;DHT22;27926;48.062;7.474;2022-07-29T13:32:16;27.80;91.10
42261;DHT22;27926;48.062;7.474;2022-07-29T13:34:41;27.70;90.80
42261;DHT22;27926;48.062;7.474;2022-07-29T13:37:06;27.60;90.60
42261;DHT22;27926;48.062;7.474;2022-07-29T13:39:31;27.60;90.80
42261;DHT22;27926;48.062;7.474;2022-07-29T13:41:56;27.60;90.20
42261;DHT22;27926;48.062;7.474;2022-07-29T13:44:20;27.70;90.40
42261;DHT22;27926;48.062;7.474;2022-07-29T13:46:45;27.80;90.70
42261;DHT22;27926;48.062;7.474;2022-07-29T13:49:10;28.00;90.60
42261;DHT22;27926;48.062;7.474;2022-07-29T13:51:35;28.10;90.70
42261;DHT22;27926;48.062;7.474;2022-07-29T13:54:00;28.30;89.50
42261;DHT22;27926;48.062;7.474;2022-07-29T13:56:24;28.30;88.90
42261;DHT22;27926;48.062;7.474;2022-07-29T13:58:49;28.40;88.90
42261;DHT22;27926;48.062;7.474;2022-07-29T14:01:13;28.30;87.90
42261;DHT22;27926;48.062;7.474;2022-07-29T14:03:38;28.20;86.90
42261;DHT22;27926;48.062;7.474;2022-07-29T14:06:05;28.30;87.70
42261;DHT22;27926;48.062;7.474;2022-07-29T14:08:30;28.10;87.00
42261;DHT22;27926;48.062;7.474;2022-07-29T14:10:54;28.10;87.30
42261;DHT22;27926;48.062;7.474;2022-07-29T14:13:23;28.20;87.40
42261;DHT22;27926;48.062;7.474;2022-07-29T14:15:47;28.20;86.90
42261;DHT22;27926;48.062;7.474;2022-07-29T14:18:12;28.00;84.90
42261;DHT22;27926;48.062;7.474;2022-07-29T14:20:37;28.10;85.50
42261;DHT22;27926;48.062;7.474;2022-07-29T14:23:01;28.10;86.30
42261;DHT22;27926;48.062;7.474;2022-07-29T14:25:26;28.10;84.50
42261;DHT22;27926;48.062;7.474;2022-07-29T14:27:51;28.20;84.90
42261;DHT22;27926;48.062;7.474;2022-07-29T14:30:17;28.30;84.20
42261;DHT22;27926;48.062;7.474;2022-07-29T14:32:41;28.50;84.70
42261;DHT22;27926;48.062;7.474;2022-07-29T14:35:06;28.60;83.00
42261;DHT22;27926;48.062;7.474;2022-07-29T14:37:32;28.40;82.20
42261;DHT22;27926;48.062;7.474;2022-07-29T14:39:56;28.30;82.70
42261;DHT22;27926;48.062;7.474;2022-07-29T14:42:25;28.30;82.30
42261;DHT22;27926;48.062;7.474;2022-07-29T14:44:50;28.20;82.80
42261;DHT22;27926;48.062;7.474;2022-07-29T14:47:15;28.10;82.70
42261;DHT22;27926;48.062;7.474;2022-07-29T14:49:39;28.10;83.00
42261;DHT22;27926;48.062;7.474;2022-07-29T14:52:05;28.10;82.70
42261;DHT22;27926;48.062;7.474;2022-07-29T14:54:29;28.00;82.40
42261;DHT22;27926;48.062;7.474;2022-07-29T14:56:54;28.00;82.50
42261;DHT22;27926;48.062;7.474;2022-07-29T14:59:21;28.10;83.30
42261;DHT22;27926;48.062;7.474;2022-07-29T15:01:45;28.20;82.70
42261;DHT22;27926;48.062;7.474;2022-07-29T15:04:10;28.10;81.20
42261;DHT22;27926;48.062;7.474;2022-07-29T15:06:35;28.00;81.60
42261;DHT22;27926;48.062;7.474;2022-07-29T15:09:00;28.00;82.90
42261;DHT22;27926;48.062;7.474;2022-07-29T15:11:25;28.00;83.30
42261;DHT22;27926;48.062;7.474;2022-07-29T15:13:49;28.00;81.40
42261;DHT22;27926;48.062;7.474;2022-07-29T15:16:14;28.30;83.00
42261;DHT22;27926;48.062;7.474;2022-07-29T15:18:39;28.50;83.20
42261;DHT22;27926;48.062;7.474;2022-07-29T15:21:04;28.50;85.10
42261;DHT22;27926;48.062;7.474;2022-07-29T15:23:30;28.40;83.00
42261;DHT22;27926;48.062;7.474;2022-07-29T15:25:55;28.50;81.00
42261;DHT22;27926;48.062;7.474;2022-07-29T15:28:20;28.50;81.50
42261;DHT22;27926;48.062;7.474;2022-07-29T15:30:44;28.40;81.40
42261;DHT22;27926;48.062;7.474;2022-07-29T15:33:09;28.40;80.10
42261;DHT22;27926;48.062;7.474;2022-07-29T15:35:34;28.30;80.50
42261;DHT22;27926;48.062;7.474;2022-07-29T15:37:59;28.40;81.60
42261;DHT22;27926;48.062;7.474;2022-07-29T15:40:23;28.50;81.10
42261;DHT22;27926;48.062;7.474;2022-07-29T15:42:48;28.30;82.20
42261;DHT22;27926;48.062;7.474;2022-07-29T15:45:12;28.30;83.40
42261;DHT22;27926;48.062;7.474;2022-07-29T15:47:37;28.50;82.30
42261;DHT22;27926;48.062;7.474;2022-07-29T15:50:02;28.80;80.40
42261;DHT22;27926;48.062;7.474;2022-07-29T15:52:27;29.00;79.60
42261;DHT22;27926;48.062;7.474;2022-07-29T15:54:52;29.20;80.50
42261;DHT22;27926;48.062;7.474;2022-07-29T15:57:17;29.30;80.80
42261;DHT22;27926;48.062;7.474;2022-07-29T15:59:41;29.20;79.50
42261;DHT22;27926;48.062;7.474;2022-07-29T16:02:06;29.10;79.60
42261;DHT22;27926;48.062;7.474;2022-07-29T16:04:31;29.10;79.00
42261;DHT22;27926;48.062;7.474;2022-07-29T16:06:56;29.10;78.60
42261;DHT22;27926;48.062;7.474;2022-07-29T16:09:21;29.10;78.90
42261;DHT22;27926;48.062;7.474;2022-07-29T16:11:46;29.00;80.10
42261;DHT22;27926;48.062;7.474;2022-07-29T16:14:14;28.90;79.00
42261;DHT22;27926;48.062;7.474;2022-07-29T16:16:38;28.90;78.10
42261;DHT22;27926;48.062;7.474;2022-07-29T16:19:04;28.80;78.50
42261;DHT22;27926;48.062;7.474;2022-07-29T16:21:29;28.70;80.20
42261;DHT22;27926;48.062;7.474;2022-07-29T16:23:54;28.50;80.70
42261;DHT22;27926;48.062;7.474;2022-07-29T16:26:19;28.30;80.60
42261;DHT22;27926;48.062;7.474;2022-07-29T16:28:44;28.20;80.80
42261;DHT22;27926;48.062;7.474;2022-07-29T16:31:09;28.00;80.10